sensor_id;sensor_type;location;lat;lon;timestamp;P1;durP1;ratioP1;P2;durP2;ratioP2
66089;SDS011;53113;45.602;11.904;2022-08-14T00:00:41;7.00;;;4.60;;
66089;SDS011;53113;45.602;11.904;2022-08-14T00:03:07;7.30;;;4.60;;
66089;SDS011;53113;45.602;11.904;2022-08-14T00:05:41;10.60;;;4.70;;
66089;SDS011;53113;45.602;11.904;2022-08-14T00:08:07;7.00;;;4.20;;
66089;SDS011;53113;45.602;11.904;2022-08-14T00:10:33;8.90;;;4.30;;
66089;SDS011;53113;45.602;11.904;2022-08-14T00:12:59;7.40;;;4.60;;
66089;SDS011;53113;45.602;11.904;2022-08-14T00:15:32;7.30;;;4.50;;
66089;SDS011;53113;45.602;11.904;2022-08-14T00:18:00;8.00;;;4.70;;
66089;SDS011;53113;45.602;11.904;2022-08-14T00:20:29;7.80;;;4.90;;
66089;SDS011;53113;45.602;11.904;2022-08-14T00:22:57;8.50;;;5.60;;
66089;SDS011;53113;45.602;11.904;2022-08-14T00:25:25;9.70;;;5.00;;
66089;SDS011;53113;45.602;11.904;2022-08-14T00:27:51;7.90;;;4.40;;
66089;SDS011;53113;45.602;11.904;2022-08-14T00:30:17;7.70;;;5.00;;
66089;SDS011;53113;45.602;11.904;2022-08-14T00:32:43;8.00;;;4.70;;
66089;SDS011;53113;45.602;11.904;2022-08-14T00:35:09;7.60;;;4.50;;
66089;SDS011;53113;45.602;11.904;2022-08-14T00:37:37;7.20;;;4.60;;
66089;SDS011;53113;45.602;11.904;2022-08-14T00:40:05;7.40;;;4.80;;
66089;SDS011;53113;45.602;11.904;2022-08-14T00:42:32;7.20;;;4.40;;
66089;SDS011;53113;45.602;11.904;2022-08-14T00:44:58;8.20;;;5.00;;
66089;SDS011;53113;45.602;11.904;2022-08-14T00:47:24;8.00;;;4.30;;
66089;SDS011;53113;45.602;11.904;2022-08-14T00:49:51;9.10;;;4.60;;
66089;SDS011;53113;45.602;11.904;2022-08-14T00:52:19;7.80;;;4.60;;
66089;SDS011;53113;45.602;11.904;2022-08-14T00:54:47;7.90;;;5.20;;
66089;SDS011;53113;45.602;11.904;2022-08-14T00:57:22;10.20;;;5.10;;
66089;SDS011;53113;45.602;11.904;2022-08-14T00:59:50;7.60;;;4.60;;
66089;SDS011;53113;45.602;11.904;2022-08-14T01:02:17;8.80;;;5.30;;
66089;SDS011;53113;45.602;11.904;2022-08-14T01:04:52;9.40;;;5.50;;
66089;SDS011;53113;45.602;11.904;2022-08-14T01:07:24;8.70;;;5.50;;
66089;SDS011;53113;45.602;11.904;2022-08-14T01:09:54;8.30;;;5.40;;
66089;SDS011;53113;45.602;11.904;2022-08-14T01:12:23;7.70;;;5.30;;
66089;SDS011;53113;45.602;11.904;2022-08-14T01:14:50;10.30;;;5.70;;
66089;SDS011;53113;45.602;11.904;2022-08-14T01:19:45;9.20;;;5.50;;
66089;SDS011;53113;45.602;11.904;2022-08-14T01:22:29;8.70;;;6.00;;
66089;SDS011;53113;45.602;11.904;2022-08-14T01:24:55;10.40;;;5.30;;
66089;SDS011;53113;45.602;11.904;2022-08-14T01:27:22;9.40;;;5.90;;
66089;SDS011;53113;45.602;11.904;2022-08-14T01:29:50;9.40;;;5.70;;
66089;SDS011;53113;45.602;11.904;2022-08-14T01:32:18;9.00;;;6.20;;
66089;SDS011;53113;45.602;11.904;2022-08-14T01:34:46;8.30;;;5.40;;
66089;SDS011;53113;45.602;11.904;2022-08-14T01:37:19;10.40;;;5.70;;
66089;SDS011;53113;45.602;11.904;2022-08-14T01:39:50;8.20;;;5.30;;
66089;SDS011;53113;45.602;11.904;2022-08-14T01:42:17;8.30;;;4.90;;
66089;SDS011;53113;45.602;11.904;2022-08-14T01:44:43;8.70;;;5.30;;
66089;SDS011;53113;45.602;11.904;2022-08-14T01:47:13;8.10;;;5.30;;
66089;SDS011;53113;45.602;11.904;2022-08-14T01:49:39;10.90;;;5.80;;
66089;SDS011;53113;45.602;11.904;2022-08-14T01:52:06;9.10;;;5.20;;
66089;SDS011;53113;45.602;11.904;2022-08-14T01:54:33;8.20;;;5.30;;
66089;SDS011;53113;45.602;11.904;2022-08-14T01:57:01;8.30;;;5.20;;
66089;SDS011;53113;45.602;11.904;2022-08-14T01:59:29;8.00;;;5.60;;
66089;SDS011;53113;45.602;11.904;2022-08-14T02:01:58;8.80;;;5.80;;
66089;SDS011;53113;45.602;11.904;2022-08-14T02:04:34;9.10;;;5.30;;
66089;SDS011;53113;45.602;11.904;2022-08-14T02:07:01;9.40;;;5.40;;
66089;SDS011;53113;45.602;11.904;2022-08-14T02:09:29;8.70;;;5.60;;
66089;SDS011;53113;45.602;11.904;2022-08-14T02:12:00;8.40;;;5.20;;
66089;SDS011;53113;45.602;11.904;2022-08-14T02:14:27;7.90;;;5.00;;
66089;SDS011;53113;45.602;11.904;2022-08-14T02:16:54;9.90;;;5.00;;
66089;SDS011;53113;45.602;11.904;2022-08-14T02:19:22;8.30;;;5.50;;
66089;SDS011;53113;45.602;11.904;2022-08-14T02:21:52;11.30;;;5.70;;
66089;SDS011;53113;45.602;11.904;2022-08-14T02:24:22;10.20;;;5.80;;
66089;SDS011;53113;45.602;11.904;2022-08-14T02:26:53;7.90;;;5.50;;
66089;SDS011;53113;45.602;11.904;2022-08-14T02:29:21;7.90;;;5.20;;
66089;SDS011;53113;45.602;11.904;2022-08-14T02:31:52;9.80;;;5.80;;
66089;SDS011;53113;45.602;11.904;2022-08-14T02:34:22;9.30;;;5.70;;
66089;SDS011;53113;45.602;11.904;2022-08-14T02:37:02;9.10;;;5.70;;
66089;SDS011;53113;45.602;11.904;2022-08-14T02:39:35;8.70;;;5.30;;
66089;SDS011;53113;45.602;11.904;2022-08-14T02:42:03;9.20;;;5.20;;
66089;SDS011;53113;45.602;11.904;2022-08-14T02:44:30;7.70;;;5.10;;
66089;SDS011;53113;45.602;11.904;2022-08-14T02:46:56;10.90;;;5.60;;
66089;SDS011;53113;45.602;11.904;2022-08-14T02:49:23;9.40;;;5.60;;
66089;SDS011;53113;45.602;11.904;2022-08-14T02:51:53;8.50;;;5.50;;
66089;SDS011;53113;45.602;11.904;2022-08-14T02:54:20;8.00;;;5.50;;
66089;SDS011;53113;45.602;11.904;2022-08-14T02:56:51;9.30;;;5.30;;
66089;SDS011;53113;45.602;11.904;2022-08-14T02:59:22;9.00;;;5.20;;
66089;SDS011;53113;45.602;11.904;2022-08-14T03:01:52;8.30;;;6.00;;
66089;SDS011;53113;45.602;11.904;2022-08-14T03:04:18;8.70;;;6.30;;
66089;SDS011;53113;45.602;11.904;2022-08-14T03:06:45;9.30;;;6.30;;
66089;SDS011;53113;45.602;11.904;2022-08-14T03:09:12;11.20;;;6.50;;
66089;SDS011;53113;45.602;11.904;2022-08-14T03:11:38;8.90;;;5.60;;
66089;SDS011;53113;45.602;11.904;2022-08-14T03:14:06;11.00;;;6.40;;
66089;SDS011;53113;45.602;11.904;2022-08-14T03:16:35;8.20;;;5.70;;
66089;SDS011;53113;45.602;11.904;2022-08-14T03:19:03;8.20;;;5.70;;
66089;SDS011;53113;45.602;11.904;2022-08-14T03:21:31;9.10;;;6.00;;
66089;SDS011;53113;45.602;11.904;2022-08-14T03:23:58;10.20;;;6.40;;
66089;SDS011;53113;45.602;11.904;2022-08-14T03:26:34;9.70;;;5.60;;
66089;SDS011;53113;45.602;11.904;2022-08-14T03:29:00;9.30;;;5.50;;
66089;SDS011;53113;45.602;11.904;2022-08-14T03:31:27;8.20;;;5.20;;
66089;SDS011;53113;45.602;11.904;2022-08-14T03:33:54;9.70;;;5.80;;
66089;SDS011;53113;45.602;11.904;2022-08-14T03:36:20;7.90;;;5.30;;
66089;SDS011;53113;45.602;11.904;2022-08-14T03:38:47;7.90;;;6.00;;
66089;SDS011;53113;45.602;11.904;2022-08-14T03:41:19;8.60;;;5.40;;
66089;SDS011;53113;45.602;11.904;2022-08-14T03:43:50;9.30;;;6.20;;
66089;SDS011;53113;45.602;11.904;2022-08-14T03:46:19;8.20;;;5.50;;
66089;SDS011;53113;45.602;11.904;2022-08-14T03:48:46;8.00;;;5.60;;
66089;SDS011;53113;45.602;11.904;2022-08-14T03:51:12;8.40;;;5.90;;
66089;SDS011;53113;45.602;11.904;2022-08-14T03:53:39;9.00;;;5.60;;
66089;SDS011;53113;45.602;11.904;2022-08-14T03:56:10;9.20;;;6.00;;
66089;SDS011;53113;45.602;11.904;2022-08-14T03:58:42;8.60;;;5.90;;
66089;SDS011;53113;45.602;11.904;2022-08-14T04:01:17;8.50;;;5.60;;
66089;SDS011;53113;45.602;11.904;2022-08-14T04:03:46;9.10;;;5.70;;
66089;SDS011;53113;45.602;11.904;2022-08-14T04:06:12;8.00;;;5.80;;
66089;SDS011;53113;45.602;11.904;2022-08-14T04:08:39;8.90;;;6.00;;
66089;SDS011;53113;45.602;11.904;2022-08-14T04:11:07;7.60;;;5.30;;
66089;SDS011;53113;45.602;11.904;2022-08-14T04:13:35;9.00;;;6.20;;
66089;SDS011;53113;45.602;11.904;2022-08-14T04:16:04;8.00;;;5.60;;
66089;SDS011;53113;45.602;11.904;2022-08-14T04:18:33;9.10;;;5.90;;
66089;SDS011;53113;45.602;11.904;2022-08-14T04:21:04;8.90;;;6.40;;
66089;SDS011;53113;45.602;11.904;2022-08-14T04:23:30;11.20;;;6.30;;
66089;SDS011;53113;45.602;11.904;2022-08-14T04:25:56;8.40;;;6.10;;
66089;SDS011;53113;45.602;11.904;2022-08-14T04:28:23;9.00;;;6.20;;
66089;SDS011;53113;45.602;11.904;2022-08-14T04:30:50;9.80;;;6.60;;
66089;SDS011;53113;45.602;11.904;2022-08-14T04:33:16;10.60;;;6.60;;
66089;SDS011;53113;45.602;11.904;2022-08-14T04:35:42;10.00;;;7.10;;
66089;SDS011;53113;45.602;11.904;2022-08-14T04:38:08;8.90;;;5.90;;
66089;SDS011;53113;45.602;11.904;2022-08-14T04:40:54;10.40;;;6.40;;
66089;SDS011;53113;45.602;11.904;2022-08-14T04:43:40;9.90;;;7.00;;
66089;SDS011;53113;45.602;11.904;2022-08-14T04:46:08;9.80;;;6.80;;
66089;SDS011;53113;45.602;11.904;2022-08-14T04:48:36;12.30;;;6.80;;
66089;SDS011;53113;45.602;11.904;2022-08-14T04:51:04;11.40;;;7.20;;
66089;SDS011;53113;45.602;11.904;2022-08-14T04:53:32;10.60;;;6.90;;
66089;SDS011;53113;45.602;11.904;2022-08-14T04:55:59;10.00;;;7.30;;
66089;SDS011;53113;45.602;11.904;2022-08-14T04:58:28;10.00;;;7.30;;
66089;SDS011;53113;45.602;11.904;2022-08-14T05:00:55;10.30;;;7.60;;
66089;SDS011;53113;45.602;11.904;2022-08-14T05:03:23;11.30;;;8.70;;
66089;SDS011;53113;45.602;11.904;2022-08-14T05:05:53;10.90;;;8.30;;
66089;SDS011;53113;45.602;11.904;2022-08-14T05:08:21;12.10;;;8.60;;
66089;SDS011;53113;45.602;11.904;2022-08-14T05:10:50;13.60;;;9.00;;
66089;SDS011;53113;45.602;11.904;2022-08-14T05:15:43;10.30;;;7.10;;
66089;SDS011;53113;45.602;11.904;2022-08-14T05:18:14;11.40;;;8.40;;
66089;SDS011;53113;45.602;11.904;2022-08-14T05:20:43;11.20;;;8.00;;
66089;SDS011;53113;45.602;11.904;2022-08-14T05:23:12;11.00;;;8.30;;
66089;SDS011;53113;45.602;11.904;2022-08-14T05:25:39;13.80;;;9.10;;
66089;SDS011;53113;45.602;11.904;2022-08-14T05:30:40;11.20;;;8.90;;
66089;SDS011;53113;45.602;11.904;2022-08-14T05:33:08;11.60;;;8.80;;
66089;SDS011;53113;45.602;11.904;2022-08-14T05:35:34;10.50;;;8.20;;
66089;SDS011;53113;45.602;11.904;2022-08-14T05:37:59;10.90;;;7.70;;
66089;SDS011;53113;45.602;11.904;2022-08-14T05:40:32;10.70;;;8.30;;
66089;SDS011;53113;45.602;11.904;2022-08-14T05:42:59;15.60;;;8.40;;
66089;SDS011;53113;45.602;11.904;2022-08-14T05:45:26;11.20;;;7.80;;
66089;SDS011;53113;45.602;11.904;2022-08-14T05:47:52;11.10;;;8.60;;
66089;SDS011;53113;45.602;11.904;2022-08-14T05:50:18;13.20;;;8.80;;
66089;SDS011;53113;45.602;11.904;2022-08-14T05:52:43;11.90;;;8.60;;
66089;SDS011;53113;45.602;11.904;2022-08-14T05:55:10;10.70;;;8.50;;
66089;SDS011;53113;45.602;11.904;2022-08-14T05:57:46;10.80;;;8.80;;
66089;SDS011;53113;45.602;11.904;2022-08-14T06:00:14;13.00;;;8.50;;
66089;SDS011;53113;45.602;11.904;2022-08-14T06:02:41;10.70;;;7.90;;
66089;SDS011;53113;45.602;11.904;2022-08-14T06:05:06;11.20;;;8.50;;
66089;SDS011;53113;45.602;11.904;2022-08-14T06:07:35;10.40;;;8.10;;
66089;SDS011;53113;45.602;11.904;2022-08-14T06:10:03;9.90;;;7.50;;
66089;SDS011;53113;45.602;11.904;2022-08-14T06:12:31;12.50;;;8.00;;
66089;SDS011;53113;45.602;11.904;2022-08-14T06:14:57;10.50;;;7.90;;
66089;SDS011;53113;45.602;11.904;2022-08-14T06:17:23;9.10;;;7.30;;
66089;SDS011;53113;45.602;11.904;2022-08-14T06:19:50;9.00;;;7.10;;
66089;SDS011;53113;45.602;11.904;2022-08-14T06:22:16;8.80;;;6.90;;
66089;SDS011;53113;45.602;11.904;2022-08-14T06:24:41;8.60;;;5.90;;
66089;SDS011;53113;45.602;11.904;2022-08-14T06:27:07;8.80;;;6.10;;
66089;SDS011;53113;45.602;11.904;2022-08-14T06:29:33;9.00;;;6.40;;
66089;SDS011;53113;45.602;11.904;2022-08-14T06:32:01;9.30;;;6.40;;
66089;SDS011;53113;45.602;11.904;2022-08-14T06:34:28;9.20;;;6.20;;
66089;SDS011;53113;45.602;11.904;2022-08-14T06:36:54;10.30;;;6.60;;
66089;SDS011;53113;45.602;11.904;2022-08-14T06:39:23;9.80;;;6.50;;
66089;SDS011;53113;45.602;11.904;2022-08-14T06:41:49;9.40;;;7.30;;
66089;SDS011;53113;45.602;11.904;2022-08-14T06:44:15;10.30;;;6.80;;
66089;SDS011;53113;45.602;11.904;2022-08-14T06:46:41;8.40;;;5.80;;
66089;SDS011;53113;45.602;11.904;2022-08-14T06:49:07;8.70;;;5.70;;
66089;SDS011;53113;45.602;11.904;2022-08-14T06:51:32;8.30;;;5.80;;
66089;SDS011;53113;45.602;11.904;2022-08-14T06:54:00;7.70;;;5.40;;
66089;SDS011;53113;45.602;11.904;2022-08-14T06:56:26;9.60;;;5.40;;
66089;SDS011;53113;45.602;11.904;2022-08-14T06:58:51;10.90;;;5.20;;
66089;SDS011;53113;45.602;11.904;2022-08-14T07:01:17;7.80;;;4.50;;
66089;SDS011;53113;45.602;11.904;2022-08-14T07:04:02;7.40;;;4.40;;
66089;SDS011;53113;45.602;11.904;2022-08-14T07:06:46;7.20;;;3.80;;
66089;SDS011;53113;45.602;11.904;2022-08-14T07:09:12;7.20;;;4.30;;
66089;SDS011;53113;45.602;11.904;2022-08-14T07:11:37;6.00;;;3.60;;
66089;SDS011;53113;45.602;11.904;2022-08-14T07:14:03;7.10;;;3.60;;
66089;SDS011;53113;45.602;11.904;2022-08-14T07:16:29;7.90;;;3.70;;
66089;SDS011;53113;45.602;11.904;2022-08-14T07:18:55;8.00;;;3.80;;
66089;SDS011;53113;45.602;11.904;2022-08-14T07:21:22;6.00;;;3.60;;
66089;SDS011;53113;45.602;11.904;2022-08-14T07:23:48;7.60;;;3.90;;
66089;SDS011;53113;45.602;11.904;2022-08-14T07:26:13;8.30;;;4.60;;
66089;SDS011;53113;45.602;11.904;2022-08-14T07:28:39;7.30;;;4.50;;
66089;SDS011;53113;45.602;11.904;2022-08-14T07:31:07;9.00;;;4.30;;
66089;SDS011;53113;45.602;11.904;2022-08-14T07:33:42;8.20;;;4.10;;
66089;SDS011;53113;45.602;11.904;2022-08-14T07:36:12;8.20;;;3.60;;
66089;SDS011;53113;45.602;11.904;2022-08-14T07:38:39;7.70;;;4.00;;
66089;SDS011;53113;45.602;11.904;2022-08-14T07:41:05;7.00;;;3.90;;
66089;SDS011;53113;45.602;11.904;2022-08-14T07:43:34;6.60;;;3.70;;
66089;SDS011;53113;45.602;11.904;2022-08-14T07:46:01;9.00;;;3.60;;
66089;SDS011;53113;45.602;11.904;2022-08-14T07:48:28;7.70;;;3.80;;
66089;SDS011;53113;45.602;11.904;2022-08-14T07:50:54;6.50;;;4.00;;
66089;SDS011;53113;45.602;11.904;2022-08-14T07:53:19;8.70;;;3.60;;
66089;SDS011;53113;45.602;11.904;2022-08-14T07:55:46;8.50;;;3.90;;
66089;SDS011;53113;45.602;11.904;2022-08-14T07:58:13;8.10;;;3.80;;
66089;SDS011;53113;45.602;11.904;2022-08-14T08:00:41;7.80;;;3.90;;
66089;SDS011;53113;45.602;11.904;2022-08-14T08:03:08;6.40;;;3.30;;
66089;SDS011;53113;45.602;11.904;2022-08-14T08:05:36;6.50;;;3.10;;
66089;SDS011;53113;45.602;11.904;2022-08-14T08:08:04;5.90;;;3.10;;
66089;SDS011;53113;45.602;11.904;2022-08-14T08:10:32;8.00;;;3.50;;
66089;SDS011;53113;45.602;11.904;2022-08-14T08:15:30;7.50;;;3.20;;
66089;SDS011;53113;45.602;11.904;2022-08-14T08:18:01;7.20;;;2.90;;
66089;SDS011;53113;45.602;11.904;2022-08-14T08:20:30;6.30;;;2.90;;
66089;SDS011;53113;45.602;11.904;2022-08-14T08:22:58;7.70;;;2.90;;
66089;SDS011;53113;45.602;11.904;2022-08-14T08:25:25;7.00;;;2.90;;
66089;SDS011;53113;45.602;11.904;2022-08-14T08:27:57;6.80;;;2.60;;
66089;SDS011;53113;45.602;11.904;2022-08-14T08:30:29;5.70;;;2.50;;
66089;SDS011;53113;45.602;11.904;2022-08-14T08:32:57;4.50;;;2.50;;
66089;SDS011;53113;45.602;11.904;2022-08-14T08:35:26;6.00;;;2.50;;
66089;SDS011;53113;45.602;11.904;2022-08-14T08:37:54;4.40;;;2.40;;
66089;SDS011;53113;45.602;11.904;2022-08-14T08:40:28;5.50;;;2.50;;
66089;SDS011;53113;45.602;11.904;2022-08-14T08:43:00;3.90;;;2.10;;
66089;SDS011;53113;45.602;11.904;2022-08-14T08:45:31;4.90;;;2.30;;
66089;SDS011;53113;45.602;11.904;2022-08-14T08:47:59;4.40;;;2.10;;
66089;SDS011;53113;45.602;11.904;2022-08-14T08:50:32;5.00;;;2.20;;
66089;SDS011;53113;45.602;11.904;2022-08-14T08:53:03;4.60;;;2.30;;
66089;SDS011;53113;45.602;11.904;2022-08-14T08:58:05;4.40;;;2.50;;
66089;SDS011;53113;45.602;11.904;2022-08-14T09:00:33;4.50;;;2.20;;
66089;SDS011;53113;45.602;11.904;2022-08-14T09:03:01;4.60;;;2.10;;
66089;SDS011;53113;45.602;11.904;2022-08-14T09:05:28;5.20;;;2.20;;
66089;SDS011;53113;45.602;11.904;2022-08-14T09:10:41;4.00;;;2.00;;
66089;SDS011;53113;45.602;11.904;2022-08-14T09:13:08;6.20;;;2.30;;
66089;SDS011;53113;45.602;11.904;2022-08-14T09:15:40;3.90;;;2.20;;
66089;SDS011;53113;45.602;11.904;2022-08-14T09:18:08;4.40;;;2.30;;
66089;SDS011;53113;45.602;11.904;2022-08-14T09:20:36;6.90;;;2.30;;
66089;SDS011;53113;45.602;11.904;2022-08-14T09:23:05;3.50;;;2.20;;
66089;SDS011;53113;45.602;11.904;2022-08-14T09:25:33;5.50;;;2.30;;
66089;SDS011;53113;45.602;11.904;2022-08-14T09:27:59;5.10;;;2.30;;
66089;SDS011;53113;45.602;11.904;2022-08-14T09:30:26;4.70;;;2.00;;
66089;SDS011;53113;45.602;11.904;2022-08-14T09:33:14;7.30;;;2.30;;
66089;SDS011;53113;45.602;11.904;2022-08-14T09:36:05;4.90;;;2.30;;
66089;SDS011;53113;45.602;11.904;2022-08-14T09:47:11;3.80;;;2.00;;
66089;SDS011;53113;45.602;11.904;2022-08-14T09:52:13;4.20;;;1.90;;
66089;SDS011;53113;45.602;11.904;2022-08-14T09:54:44;3.70;;;1.90;;
66089;SDS011;53113;45.602;11.904;2022-08-14T09:57:25;3.40;;;1.70;;
66089;SDS011;53113;45.602;11.904;2022-08-14T09:59:52;4.70;;;1.80;;
66089;SDS011;53113;45.602;11.904;2022-08-14T10:02:23;4.10;;;1.80;;
66089;SDS011;53113;45.602;11.904;2022-08-14T10:05:03;4.30;;;1.90;;
66089;SDS011;53113;45.602;11.904;2022-08-14T10:07:48;5.10;;;1.90;;
66089;SDS011;53113;45.602;11.904;2022-08-14T10:10:28;4.00;;;1.80;;
66089;SDS011;53113;45.602;11.904;2022-08-14T10:12:55;3.70;;;1.60;;
66089;SDS011;53113;45.602;11.904;2022-08-14T10:15:22;3.40;;;1.70;;
66089;SDS011;53113;45.602;11.904;2022-08-14T10:20:37;4.60;;;1.80;;
66089;SDS011;53113;45.602;11.904;2022-08-14T10:23:15;4.60;;;1.80;;
66089;SDS011;53113;45.602;11.904;2022-08-14T10:25:46;4.90;;;1.80;;
66089;SDS011;53113;45.602;11.904;2022-08-14T10:28:16;2.80;;;1.50;;
66089;SDS011;53113;45.602;11.904;2022-08-14T10:30:44;4.40;;;1.80;;
66089;SDS011;53113;45.602;11.904;2022-08-14T10:33:24;4.50;;;1.70;;
66089;SDS011;53113;45.602;11.904;2022-08-14T10:35:58;4.80;;;1.80;;
66089;SDS011;53113;45.602;11.904;2022-08-14T10:38:29;2.50;;;1.60;;
66089;SDS011;53113;45.602;11.904;2022-08-14T10:41:09;5.50;;;1.80;;
66089;SDS011;53113;45.602;11.904;2022-08-14T10:43:38;3.80;;;1.60;;
66089;SDS011;53113;45.602;11.904;2022-08-14T10:46:15;3.40;;;1.60;;
66089;SDS011;53113;45.602;11.904;2022-08-14T10:48:54;3.30;;;1.80;;
66089;SDS011;53113;45.602;11.904;2022-08-14T10:51:28;3.50;;;1.90;;
66089;SDS011;53113;45.602;11.904;2022-08-14T10:56:29;5.60;;;1.70;;
66089;SDS011;53113;45.602;11.904;2022-08-14T10:59:04;3.40;;;1.60;;
66089;SDS011;53113;45.602;11.904;2022-08-14T11:01:36;3.50;;;1.70;;
66089;SDS011;53113;45.602;11.904;2022-08-14T11:04:04;2.90;;;1.50;;
66089;SDS011;53113;45.602;11.904;2022-08-14T11:06:30;2.70;;;1.40;;
66089;SDS011;53113;45.602;11.904;2022-08-14T11:08:57;4.00;;;1.80;;
66089;SDS011;53113;45.602;11.904;2022-08-14T11:11:23;4.50;;;1.60;;
66089;SDS011;53113;45.602;11.904;2022-08-14T11:13:55;3.30;;;1.50;;
66089;SDS011;53113;45.602;11.904;2022-08-14T11:16:22;3.20;;;1.40;;
66089;SDS011;53113;45.602;11.904;2022-08-14T11:18:50;3.40;;;1.30;;
66089;SDS011;53113;45.602;11.904;2022-08-14T11:21:19;3.70;;;1.80;;
66089;SDS011;53113;45.602;11.904;2022-08-14T11:23:47;3.00;;;1.60;;
66089;SDS011;53113;45.602;11.904;2022-08-14T11:26:15;2.10;;;1.40;;
66089;SDS011;53113;45.602;11.904;2022-08-14T11:28:47;3.40;;;1.60;;
66089;SDS011;53113;45.602;11.904;2022-08-14T11:31:14;6.40;;;1.90;;
66089;SDS011;53113;45.602;11.904;2022-08-14T11:33:50;5.20;;;1.60;;
66089;SDS011;53113;45.602;11.904;2022-08-14T11:36:21;1.90;;;1.40;;
66089;SDS011;53113;45.602;11.904;2022-08-14T11:38:50;4.90;;;1.60;;
66089;SDS011;53113;45.602;11.904;2022-08-14T11:41:15;4.40;;;1.60;;
66089;SDS011;53113;45.602;11.904;2022-08-14T11:43:42;3.80;;;1.50;;
66089;SDS011;53113;45.602;11.904;2022-08-14T11:46:09;4.50;;;1.40;;
66089;SDS011;53113;45.602;11.904;2022-08-14T11:49:11;3.90;;;1.50;;
66089;SDS011;53113;45.602;11.904;2022-08-14T11:51:30;5.70;;;1.70;;
66089;SDS011;53113;45.602;11.904;2022-08-14T11:54:03;5.00;;;1.60;;
66089;SDS011;53113;45.602;11.904;2022-08-14T11:56:36;2.60;;;1.50;;
66089;SDS011;53113;45.602;11.904;2022-08-14T11:59:05;1.90;;;1.40;;
66089;SDS011;53113;45.602;11.904;2022-08-14T12:01:33;3.80;;;1.40;;
66089;SDS011;53113;45.602;11.904;2022-08-14T12:04:10;2.40;;;1.30;;
66089;SDS011;53113;45.602;11.904;2022-08-14T12:06:44;4.50;;;1.80;;
66089;SDS011;53113;45.602;11.904;2022-08-14T12:09:35;3.70;;;1.40;;
66089;SDS011;53113;45.602;11.904;2022-08-14T12:12:14;2.90;;;1.40;;
66089;SDS011;53113;45.602;11.904;2022-08-14T12:17:13;4.40;;;1.80;;
66089;SDS011;53113;45.602;11.904;2022-08-14T12:19:49;2.80;;;1.50;;
66089;SDS011;53113;45.602;11.904;2022-08-14T12:22:19;2.50;;;1.50;;
66089;SDS011;53113;45.602;11.904;2022-08-14T12:24:57;2.20;;;1.40;;
66089;SDS011;53113;45.602;11.904;2022-08-14T12:27:33;2.20;;;1.20;;
66089;SDS011;53113;45.602;11.904;2022-08-14T12:29:59;3.80;;;1.40;;
66089;SDS011;53113;45.602;11.904;2022-08-14T12:32:25;3.80;;;1.50;;
66089;SDS011;53113;45.602;11.904;2022-08-14T12:34:52;3.40;;;1.60;;
66089;SDS011;53113;45.602;11.904;2022-08-14T12:37:27;2.10;;;1.40;;
66089;SDS011;53113;45.602;11.904;2022-08-14T12:39:54;3.10;;;1.70;;
66089;SDS011;53113;45.602;11.904;2022-08-14T12:42:20;2.90;;;1.30;;
66089;SDS011;53113;45.602;11.904;2022-08-14T12:44:47;3.60;;;1.40;;
66089;SDS011;53113;45.602;11.904;2022-08-14T12:47:13;6.30;;;1.90;;
66089;SDS011;53113;45.602;11.904;2022-08-14T12:49:51;5.60;;;1.50;;
66089;SDS011;53113;45.602;11.904;2022-08-14T12:52:26;4.10;;;2.00;;
66089;SDS011;53113;45.602;11.904;2022-08-14T12:54:59;3.70;;;1.60;;
66089;SDS011;53113;45.602;11.904;2022-08-14T12:58:02;3.80;;;1.70;;
66089;SDS011;53113;45.602;11.904;2022-08-14T13:00:23;5.60;;;1.70;;
66089;SDS011;53113;45.602;11.904;2022-08-14T13:02:50;3.60;;;1.60;;
66089;SDS011;53113;45.602;11.904;2022-08-14T13:05:22;3.60;;;1.50;;
66089;SDS011;53113;45.602;11.904;2022-08-14T13:07:50;2.20;;;1.60;;
66089;SDS011;53113;45.602;11.904;2022-08-14T13:10:17;4.90;;;2.20;;
66089;SDS011;53113;45.602;11.904;2022-08-14T13:12:45;2.70;;;1.50;;
66089;SDS011;53113;45.602;11.904;2022-08-14T13:15:12;3.70;;;1.70;;
66089;SDS011;53113;45.602;11.904;2022-08-14T13:17:46;3.30;;;1.70;;
66089;SDS011;53113;45.602;11.904;2022-08-14T13:20:14;3.90;;;1.50;;
66089;SDS011;53113;45.602;11.904;2022-08-14T13:22:43;4.00;;;1.40;;
66089;SDS011;53113;45.602;11.904;2022-08-14T13:27:36;3.70;;;1.40;;
66089;SDS011;53113;45.602;11.904;2022-08-14T13:30:06;4.10;;;1.60;;
66089;SDS011;53113;45.602;11.904;2022-08-14T13:32:34;2.70;;;1.60;;
66089;SDS011;53113;45.602;11.904;2022-08-14T13:35:00;4.80;;;1.70;;
66089;SDS011;53113;45.602;11.904;2022-08-14T13:37:26;3.30;;;1.70;;
66089;SDS011;53113;45.602;11.904;2022-08-14T13:39:53;5.30;;;1.50;;
66089;SDS011;53113;45.602;11.904;2022-08-14T13:44:49;3.70;;;1.60;;
66089;SDS011;53113;45.602;11.904;2022-08-14T13:47:17;4.00;;;1.60;;
66089;SDS011;53113;45.602;11.904;2022-08-14T13:49:45;3.40;;;1.40;;
66089;SDS011;53113;45.602;11.904;2022-08-14T13:52:13;5.30;;;1.50;;
66089;SDS011;53113;45.602;11.904;2022-08-14T13:54:44;4.80;;;1.70;;
66089;SDS011;53113;45.602;11.904;2022-08-14T13:57:13;3.90;;;1.30;;
66089;SDS011;53113;45.602;11.904;2022-08-14T13:59:48;4.00;;;1.70;;
66089;SDS011;53113;45.602;11.904;2022-08-14T14:02:16;3.70;;;1.50;;
66089;SDS011;53113;45.602;11.904;2022-08-14T14:04:45;3.40;;;1.40;;
66089;SDS011;53113;45.602;11.904;2022-08-14T14:07:17;3.30;;;1.60;;
66089;SDS011;53113;45.602;11.904;2022-08-14T14:09:46;4.80;;;1.70;;
66089;SDS011;53113;45.602;11.904;2022-08-14T14:12:14;3.00;;;1.70;;
66089;SDS011;53113;45.602;11.904;2022-08-14T14:14:41;2.90;;;1.30;;
66089;SDS011;53113;45.602;11.904;2022-08-14T14:17:08;5.10;;;1.50;;
66089;SDS011;53113;45.602;11.904;2022-08-14T14:19:41;3.60;;;1.40;;
66089;SDS011;53113;45.602;11.904;2022-08-14T14:22:13;3.20;;;1.60;;
66089;SDS011;53113;45.602;11.904;2022-08-14T14:24:43;3.40;;;1.60;;
66089;SDS011;53113;45.602;11.904;2022-08-14T14:27:11;3.90;;;1.60;;
66089;SDS011;53113;45.602;11.904;2022-08-14T14:29:38;4.10;;;1.60;;
66089;SDS011;53113;45.602;11.904;2022-08-14T14:32:11;3.20;;;1.60;;
66089;SDS011;53113;45.602;11.904;2022-08-14T14:34:38;4.00;;;1.60;;
66089;SDS011;53113;45.602;11.904;2022-08-14T14:37:08;3.00;;;1.40;;
66089;SDS011;53113;45.602;11.904;2022-08-14T14:39:37;4.70;;;1.40;;
66089;SDS011;53113;45.602;11.904;2022-08-14T14:44:34;3.60;;;1.50;;
66089;SDS011;53113;45.602;11.904;2022-08-14T14:47:09;3.30;;;1.40;;
66089;SDS011;53113;45.602;11.904;2022-08-14T14:49:37;3.70;;;1.50;;
66089;SDS011;53113;45.602;11.904;2022-08-14T14:52:05;4.30;;;1.60;;
66089;SDS011;53113;45.602;11.904;2022-08-14T14:54:33;3.20;;;1.40;;
66089;SDS011;53113;45.602;11.904;2022-08-14T14:57:03;2.30;;;1.40;;
66089;SDS011;53113;45.602;11.904;2022-08-14T14:59:30;4.30;;;1.50;;
66089;SDS011;53113;45.602;11.904;2022-08-14T15:01:59;3.10;;;1.50;;
66089;SDS011;53113;45.602;11.904;2022-08-14T15:04:31;3.30;;;1.40;;
66089;SDS011;53113;45.602;11.904;2022-08-14T15:06:59;3.10;;;1.60;;
66089;SDS011;53113;45.602;11.904;2022-08-14T15:09:26;2.30;;;1.40;;
66089;SDS011;53113;45.602;11.904;2022-08-14T15:11:51;3.10;;;1.50;;
66089;SDS011;53113;45.602;11.904;2022-08-14T15:14:17;3.30;;;1.40;;
66089;SDS011;53113;45.602;11.904;2022-08-14T15:16:45;2.90;;;1.50;;
66089;SDS011;53113;45.602;11.904;2022-08-14T15:19:12;3.30;;;1.60;;
66089;SDS011;53113;45.602;11.904;2022-08-14T15:21:38;3.00;;;1.50;;
66089;SDS011;53113;45.602;11.904;2022-08-14T15:24:05;4.50;;;1.50;;
66089;SDS011;53113;45.602;11.904;2022-08-14T15:26:31;2.20;;;1.40;;